createdAt,value
2018-04-08T00:01:28.470Z,13.00
2018-04-08T00:04:01.093Z,13.00
2018-04-08T00:06:33.684Z,12.90
2018-04-08T00:09:06.304Z,12.80
2018-04-08T00:11:38.896Z,12.70
2018-04-08T00:14:11.539Z,12.80
2018-04-08T00:16:44.913Z,12.90
2018-04-08T00:19:17.539Z,12.80
2018-04-08T00:21:50.916Z,12.70
2018-04-08T00:24:23.539Z,12.60
2018-04-08T00:26:56.910Z,12.70
2018-04-08T00:29:29.554Z,12.70
2018-04-08T00:32:02.916Z,12.60
2018-04-08T00:34:35.568Z,12.60
2018-04-08T00:37:08.189Z,12.60
2018-04-08T00:39:40.810Z,12.60
2018-04-08T00:42:13.467Z,12.50
2018-04-08T00:44:46.200Z,12.40
2018-04-08T00:47:18.884Z,12.30
2018-04-08T00:49:51.519Z,12.40
2018-04-08T00:52:24.129Z,12.30
2018-04-08T00:54:56.756Z,12.30
2018-04-08T00:57:29.352Z,12.20
2018-04-08T01:00:02.004Z,12.10
2018-04-08T01:02:34.600Z,12.10
2018-04-08T01:05:07.218Z,12.20
2018-04-08T01:07:39.820Z,12.10
2018-04-08T01:10:13.252Z,12.00
2018-04-08T01:12:46.638Z,11.90
2018-04-08T01:15:20.045Z,11.90
2018-04-08T01:17:52.635Z,11.90
2018-04-08T01:20:25.265Z,11.90
2018-04-08T01:22:57.869Z,11.90
2018-04-08T01:25:30.512Z,11.80
2018-04-08T01:28:03.107Z,11.90
2018-04-08T01:30:35.725Z,11.80
2018-04-08T01:33:09.149Z,11.80
2018-04-08T01:35:41.797Z,11.80
2018-04-08T01:38:14.402Z,11.80
2018-04-08T01:40:47.836Z,11.70
2018-04-08T01:43:20.437Z,11.70
2018-04-08T01:45:53.077Z,11.80
2018-04-08T01:48:25.667Z,11.70
2018-04-08T01:50:58.305Z,11.70
2018-04-08T01:53:30.900Z,11.60
2018-04-08T01:56:03.511Z,11.60
2018-04-08T01:58:36.114Z,11.60
2018-04-08T02:01:09.498Z,11.70
2018-04-08T02:03:42.116Z,11.60
2018-04-08T02:06:14.740Z,11.60
2018-04-08T02:08:47.344Z,11.60
2018-04-08T02:11:20.754Z,11.60
2018-04-08T02:13:54.121Z,11.70
2018-04-08T02:16:26.770Z,11.60
2018-04-08T02:18:59.378Z,11.60
2018-04-08T02:21:32.000Z,11.60
2018-04-08T02:24:04.601Z,11.60
2018-04-08T02:26:37.221Z,11.60
2018-04-08T02:29:10.593Z,11.50
2018-04-08T02:31:43.223Z,11.50
2018-04-08T02:34:16.591Z,11.70
2018-04-08T02:36:49.213Z,11.60
2018-04-08T02:39:22.578Z,11.40
2018-04-08T02:41:55.210Z,11.40
2018-04-08T02:44:27.834Z,11.40
2018-04-08T02:47:00.460Z,11.50
2018-04-08T02:49:33.062Z,11.50
2018-04-08T02:52:05.678Z,11.40
2018-04-08T02:54:39.041Z,11.30
2018-04-08T02:57:12.457Z,11.20
2018-04-08T02:59:45.062Z,11.20
2018-04-08T03:02:17.710Z,11.20
2018-04-08T03:04:50.316Z,11.10
2018-04-08T03:07:22.937Z,11.10
2018-04-08T03:09:55.537Z,11.10
2018-04-08T03:12:28.156Z,11.10
2018-04-08T03:15:01.529Z,11.20
2018-04-08T03:17:34.172Z,11.10
2018-04-08T03:20:06.778Z,11.30
2018-04-08T03:22:39.426Z,11.10
2018-04-08T03:25:12.028Z,11.00
2018-04-08T03:27:45.417Z,10.90
2018-04-08T03:30:18.018Z,10.90
2018-04-08T03:32:51.426Z,10.90
2018-04-08T03:35:24.017Z,10.90
2018-04-08T03:37:56.649Z,10.90
2018-04-08T03:40:29.262Z,10.80
2018-04-08T03:43:01.895Z,10.80
2018-04-08T03:45:34.488Z,10.80
2018-04-08T03:48:07.903Z,10.80
2018-04-08T03:50:41.276Z,10.80
2018-04-08T03:53:14.020Z,10.80
2018-04-08T03:55:46.626Z,10.70
2018-04-08T03:58:19.252Z,10.80
2018-04-08T04:00:51.862Z,10.70
2018-04-08T04:03:24.506Z,10.70
2018-04-08T04:05:57.114Z,10.70
2018-04-08T04:08:29.741Z,10.70
2018-04-08T04:11:02.344Z,10.60
2018-04-08T04:13:35.748Z,10.70
2018-04-08T04:16:08.349Z,10.70
2018-04-08T04:18:53.693Z,10.60
2018-04-08T04:21:38.318Z,10.60
2018-04-08T04:24:23.694Z,10.50
2018-04-08T04:26:56.301Z,10.40
2018-04-08T04:29:29.698Z,10.30
2018-04-08T04:32:02.345Z,10.30
2018-04-08T04:34:34.972Z,10.30
2018-04-08T04:37:07.574Z,10.30
2018-04-08T04:39:40.216Z,10.40
2018-04-08T04:42:12.824Z,10.40
2018-04-08T04:44:45.449Z,10.30
2018-04-08T04:47:18.048Z,10.50
2018-04-08T04:49:51.457Z,10.50
2018-04-08T04:52:24.821Z,10.50
2018-04-08T04:54:57.455Z,10.50
2018-04-08T04:57:30.820Z,10.40
2018-04-08T05:00:03.462Z,10.40
2018-04-08T05:02:36.834Z,10.50
2018-04-08T05:05:09.456Z,10.60
2018-04-08T05:07:42.830Z,10.90
2018-04-08T05:10:15.462Z,10.90
2018-04-08T05:12:48.824Z,11.30
2018-04-08T05:15:21.445Z,11.20
2018-04-08T05:17:54.053Z,11.30
2018-04-08T05:20:27.442Z,11.50
2018-04-08T05:23:00.049Z,11.40
2018-04-08T05:25:33.469Z,11.50
2018-04-08T05:28:06.892Z,11.60
2018-04-08T05:30:39.480Z,11.60
2018-04-08T05:33:12.081Z,11.80
2018-04-08T05:35:44.718Z,11.80
2018-04-08T05:38:18.293Z,12.10
2018-04-08T05:40:50.962Z,12.10
2018-04-08T05:43:24.326Z,12.80
2018-04-08T05:45:56.965Z,12.80
2018-04-08T05:48:29.579Z,12.80
2018-04-08T05:51:02.207Z,11.90
2018-04-08T05:53:36.325Z,12.00
2018-04-08T05:56:08.969Z,12.00
2018-04-08T05:58:42.342Z,11.70
2018-04-08T06:01:14.982Z,11.70
2018-04-08T06:03:47.613Z,11.60
2018-04-08T06:06:20.244Z,12.60
2018-04-08T06:08:53.604Z,11.90
2018-04-08T06:11:26.233Z,11.80
2018-04-08T06:13:58.837Z,11.80
2018-04-08T06:16:32.249Z,13.00
2018-04-08T06:19:05.613Z,12.80
2018-04-08T06:21:38.233Z,12.80
2018-04-08T06:24:10.848Z,13.20
2018-04-08T06:26:43.495Z,13.50
2018-04-08T06:29:16.099Z,13.50
2018-04-08T06:31:48.745Z,14.00
2018-04-08T06:34:21.337Z,13.80
2018-04-08T06:36:53.963Z,14.00
2018-04-08T06:39:26.565Z,13.00
2018-04-08T06:41:59.198Z,13.20
2018-04-08T06:44:31.798Z,13.70
2018-04-08T06:47:04.437Z,13.40
2018-04-08T06:49:37.041Z,13.50
2018-04-08T06:52:10.450Z,13.30
2018-04-08T06:54:43.828Z,13.50
2018-04-08T06:57:16.501Z,13.60
2018-04-08T06:59:49.116Z,13.70
2018-04-08T07:02:21.754Z,13.90
2018-04-08T07:04:54.363Z,14.00
2018-04-08T07:07:27.002Z,14.90
2018-04-08T07:09:59.601Z,14.90
2018-04-08T07:12:32.219Z,14.60
2018-04-08T07:15:05.581Z,14.90
2018-04-08T07:17:38.201Z,14.90
2018-04-08T07:20:11.581Z,15.20
2018-04-08T07:22:44.224Z,15.10
2018-04-08T07:25:16.826Z,14.60
2018-04-08T07:27:49.449Z,14.60
2018-04-08T07:30:22.062Z,14.90
2018-04-08T07:32:54.702Z,15.70
2018-04-08T07:35:27.357Z,15.40
2018-04-08T07:38:00.070Z,15.80
2018-04-08T07:40:32.645Z,14.80
2018-04-08T07:43:06.053Z,14.80
2018-04-08T07:45:39.415Z,14.80
2018-04-08T07:48:12.837Z,15.10
2018-04-08T07:50:45.450Z,15.10
2018-04-08T07:53:18.073Z,15.20
2018-04-08T07:55:51.438Z,15.20
2018-04-08T07:58:24.061Z,15.20
2018-04-08T08:00:57.428Z,15.30
2018-04-08T08:03:30.066Z,15.30
2018-04-08T08:06:03.428Z,15.40
2018-04-08T08:08:36.054Z,15.40
2018-04-08T08:11:09.418Z,15.30
2018-04-08T08:13:42.062Z,15.40
2018-04-08T08:16:15.434Z,15.40
2018-04-08T08:18:48.062Z,15.40
2018-04-08T08:21:21.429Z,15.90
2018-04-08T08:23:54.049Z,15.90
2018-04-08T08:26:26.645Z,15.90
2018-04-08T08:28:59.265Z,15.60
2018-04-08T08:31:31.863Z,15.50
2018-04-08T08:34:04.478Z,16.00
2018-04-08T08:36:37.079Z,15.90
2018-04-08T08:39:09.723Z,16.10
2018-04-08T08:41:42.364Z,16.50
2018-04-08T08:44:14.980Z,16.50
2018-04-08T08:46:47.585Z,16.80
2018-04-08T08:49:20.983Z,17.00
2018-04-08T08:51:53.584Z,17.00
2018-04-08T08:54:26.965Z,17.00
2018-04-08T08:56:59.571Z,16.90
2018-04-08T08:59:32.204Z,17.10
2018-04-08T09:02:04.812Z,16.70
2018-04-08T09:04:37.429Z,17.00
2018-04-08T09:07:12.679Z,17.20
2018-04-08T09:09:45.311Z,17.20
2018-04-08T09:12:18.686Z,17.00
2018-04-08T09:14:51.306Z,17.00
2018-04-08T09:17:24.678Z,17.20
2018-04-08T09:19:57.301Z,17.20
2018-04-08T09:22:35.116Z,17.20
2018-04-08T09:25:09.421Z,17.30
2018-04-08T09:27:42.024Z,17.30
2018-04-08T09:30:14.641Z,17.60
2018-04-08T09:32:48.009Z,17.50
2018-04-08T09:35:20.633Z,17.50
2018-04-08T09:37:53.234Z,17.50
2018-04-08T09:40:26.628Z,17.20
2018-04-08T09:42:59.232Z,17.20
2018-04-08T09:45:32.626Z,17.60
2018-04-08T09:48:05.224Z,17.50
2018-04-08T09:50:37.837Z,17.60
2018-04-08T09:53:11.209Z,17.90
2018-04-08T09:55:43.837Z,17.90
2018-04-08T09:58:33.026Z,18.40
2018-04-08T10:06:15.906Z,18.10
2018-04-08T10:08:49.265Z,18.50
2018-04-08T10:11:21.889Z,18.60
2018-04-08T10:13:54.490Z,18.50
2018-04-08T10:16:27.884Z,18.30
2018-04-08T10:19:00.489Z,18.30
2018-04-08T10:21:33.877Z,18.60
2018-04-08T10:24:06.494Z,18.60
2018-04-08T10:26:39.883Z,18.70
2018-04-08T10:29:12.515Z,18.70
2018-04-08T10:31:45.142Z,19.10
2018-04-08T10:34:17.745Z,18.90
2018-04-08T10:36:50.370Z,18.80
2018-04-08T10:39:23.733Z,18.80
2018-04-08T10:41:56.353Z,18.80
2018-04-08T10:44:28.954Z,19.40
2018-04-08T10:47:01.580Z,19.30
2018-04-08T10:49:34.184Z,19.90
2018-04-08T10:52:06.800Z,20.00
2018-04-08T10:54:39.400Z,19.50
2018-04-08T10:57:12.017Z,19.80
2018-04-08T10:59:45.393Z,19.70
2018-04-08T11:02:18.022Z,19.70
2018-04-08T11:04:51.413Z,19.80
2018-04-08T11:07:24.035Z,19.80
2018-04-08T11:09:56.644Z,19.60
2018-04-08T11:12:29.266Z,20.70
2018-04-08T11:15:01.880Z,19.90
2018-04-08T11:17:34.500Z,19.80
2018-04-08T11:20:07.096Z,20.10
2018-04-08T11:22:39.717Z,20.10
2018-04-08T11:25:12.321Z,20.30
2018-04-08T11:27:44.950Z,20.40
2018-04-08T11:30:18.333Z,20.90
2018-04-08T11:32:50.941Z,20.90
2018-04-08T11:35:23.563Z,20.30
2018-04-08T11:37:56.169Z,20.60
2018-04-08T11:40:28.813Z,20.50
2018-04-08T11:43:01.411Z,20.30
2018-04-08T11:45:34.037Z,20.40
2018-04-08T11:48:06.642Z,20.40
2018-04-08T11:50:39.266Z,20.50
2018-04-08T11:53:11.873Z,20.50
2018-04-08T11:55:44.505Z,21.10
2018-04-08T11:58:17.115Z,21.20
2018-04-08T12:00:49.737Z,20.30
2018-04-08T12:03:22.341Z,20.70
2018-04-08T12:05:54.965Z,20.30
2018-04-08T12:08:27.566Z,20.50
2018-04-08T12:11:00.189Z,20.70
2018-04-08T12:13:32.794Z,20.60
2018-04-08T12:16:05.418Z,21.00
2018-04-08T12:18:38.792Z,21.00
2018-04-08T12:21:11.412Z,20.90
2018-04-08T12:23:44.777Z,20.80
2018-04-08T12:26:23.069Z,20.80
2018-04-08T12:28:55.219Z,20.90
2018-04-08T12:31:28.164Z,21.30
2018-04-08T12:34:00.324Z,21.30
2018-04-08T12:36:32.499Z,21.40
2018-04-08T12:39:04.652Z,21.30
2018-04-08T12:41:36.824Z,20.60
2018-04-08T12:44:08.975Z,20.80
2018-04-08T12:46:41.165Z,21.10
2018-04-08T12:49:13.331Z,21.10
2018-04-08T12:51:45.537Z,20.60
2018-04-08T12:54:17.676Z,21.30
2018-04-08T12:56:49.868Z,21.00
2018-04-08T12:59:22.034Z,20.90
2018-04-08T13:01:54.208Z,20.80
2018-04-08T13:04:26.365Z,21.00
2018-04-08T13:06:59.319Z,21.20
2018-04-08T13:09:31.497Z,21.10
2018-04-08T13:12:03.673Z,20.80
2018-04-08T13:14:35.829Z,20.70
2018-04-08T13:17:08.002Z,21.00
2018-04-08T13:19:40.927Z,20.90
2018-04-08T13:22:13.145Z,20.80
2018-04-08T13:24:45.303Z,20.80
2018-04-08T13:27:17.516Z,20.80
2018-04-08T13:29:49.677Z,21.10
2018-04-08T13:32:21.865Z,20.80
2018-04-08T13:34:54.020Z,21.00
2018-04-08T13:37:26.198Z,20.90
2018-04-08T13:39:58.356Z,20.90
2018-04-08T13:42:31.320Z,20.90
2018-04-08T13:45:03.481Z,20.90
2018-04-08T13:47:35.661Z,21.00
2018-04-08T13:50:07.824Z,20.90
2018-04-08T13:52:40.030Z,21.20
2018-04-08T13:55:12.193Z,20.90
2018-04-08T13:57:44.406Z,20.80
2018-04-08T14:00:16.558Z,20.90
2018-04-08T14:02:48.732Z,21.30
2018-04-08T14:05:20.892Z,21.40
2018-04-08T14:07:53.074Z,21.20
2018-04-08T14:10:25.224Z,21.30
2018-04-08T14:12:57.406Z,21.30
2018-04-08T14:15:30.329Z,20.80
2018-04-08T14:18:02.512Z,20.80
2018-04-08T14:20:34.665Z,21.10
2018-04-08T14:23:06.858Z,21.30
2018-04-08T14:25:39.781Z,21.40
2018-04-08T14:28:12.003Z,21.30
2018-04-08T14:30:44.200Z,20.90
2018-04-08T14:33:16.388Z,20.90
2018-04-08T14:35:48.540Z,20.80
2018-04-08T14:38:20.738Z,20.90
2018-04-08T14:40:52.927Z,20.80
2018-04-08T14:43:25.099Z,21.00
2018-04-08T14:45:57.255Z,21.20
2018-04-08T14:48:29.457Z,21.20
2018-04-08T14:51:01.622Z,21.20
2018-04-08T14:53:33.813Z,21.10
2018-04-08T14:56:05.968Z,20.90
2018-04-08T14:58:38.144Z,20.90
2018-04-08T15:01:10.303Z,20.70
2018-04-08T15:03:42.518Z,20.80
2018-04-08T15:06:14.671Z,20.80
2018-04-08T15:08:46.848Z,20.80
2018-04-08T15:11:19.020Z,20.90
2018-04-08T15:13:51.961Z,20.80
2018-04-08T15:16:24.120Z,20.80
2018-04-08T15:18:56.310Z,20.80
2018-04-08T15:21:28.477Z,20.60
2018-04-08T15:24:00.700Z,20.70
2018-04-08T15:26:32.870Z,20.70
2018-04-08T15:29:05.073Z,20.70
2018-04-08T15:31:37.254Z,20.70
2018-04-08T15:34:09.444Z,20.80
2018-04-08T15:36:41.608Z,20.60
2018-04-08T15:39:13.816Z,20.60
2018-04-08T15:41:46.736Z,20.60
2018-04-08T15:44:18.914Z,20.60
2018-04-08T15:46:51.070Z,20.50
2018-04-08T15:49:23.260Z,20.40
2018-04-08T15:51:56.184Z,20.40
2018-04-08T15:54:28.373Z,20.40
2018-04-08T15:57:00.542Z,20.40
2018-04-08T15:59:32.722Z,20.40
2018-04-08T16:02:05.334Z,20.50
2018-04-08T16:04:37.961Z,20.60
2018-04-08T16:07:10.561Z,20.40
2018-04-08T16:09:44.013Z,20.30
2018-04-08T16:12:16.621Z,20.30
2018-04-08T16:14:49.248Z,20.20
2018-04-08T16:17:21.869Z,20.20
2018-04-08T16:19:55.279Z,20.20
2018-04-08T16:22:28.645Z,20.20
2018-04-08T16:25:01.281Z,20.20
2018-04-08T16:27:33.879Z,20.10
2018-04-08T16:30:06.502Z,20.10
2018-04-08T16:32:39.097Z,19.90
2018-04-08T16:35:11.715Z,19.90
2018-04-08T16:37:44.340Z,19.80
2018-04-08T16:40:16.966Z,19.70
2018-04-08T16:42:49.574Z,19.70
2018-04-08T16:45:22.194Z,19.70
2018-04-08T16:47:55.563Z,19.60
2018-04-08T16:50:28.185Z,19.60
2018-04-08T16:53:01.562Z,19.50
2018-04-08T16:55:34.200Z,19.50
2018-04-08T16:58:07.571Z,19.40
2018-04-08T17:00:40.189Z,19.40
2018-04-08T17:03:12.798Z,19.30
2018-04-08T17:05:46.195Z,19.00
2018-04-08T17:08:18.798Z,19.00
2018-04-08T17:10:52.198Z,18.90
2018-04-08T17:13:25.568Z,18.90
2018-04-08T17:15:58.201Z,18.80
2018-04-08T17:18:31.569Z,18.80
2018-04-08T17:21:04.212Z,18.80
2018-04-08T17:23:36.817Z,18.70
2018-04-08T17:26:09.446Z,18.60
2018-04-08T17:28:42.054Z,18.40
2018-04-08T17:31:14.689Z,18.30
2018-04-08T17:33:47.294Z,18.20
2018-04-08T17:36:19.930Z,18.20
2018-04-08T17:38:52.530Z,18.10
2018-04-08T17:41:25.153Z,18.10
2018-04-08T17:43:57.757Z,18.00
2018-04-08T17:46:30.387Z,17.90
2018-04-08T17:49:03.000Z,17.90
2018-04-08T17:51:36.397Z,17.70
2018-04-08T17:54:08.999Z,17.70
2018-04-08T17:56:41.643Z,17.70
2018-04-08T17:59:14.266Z,17.60
2018-04-08T18:01:46.913Z,17.50
2018-04-08T18:04:19.517Z,17.30
2018-04-08T18:06:52.142Z,17.20
2018-04-08T18:09:24.745Z,17.00
2018-04-08T18:11:57.370Z,16.80
2018-04-08T18:14:30.746Z,16.90
2018-04-08T18:17:03.376Z,16.90
2018-04-08T18:19:36.753Z,16.70
2018-04-08T18:22:09.376Z,16.70
2018-04-08T18:24:42.003Z,16.60
2018-04-08T18:27:14.646Z,16.50
2018-04-08T18:29:49.026Z,16.20
2018-04-08T18:32:21.653Z,16.20
2018-04-08T18:34:54.253Z,16.20
2018-04-08T18:37:26.874Z,16.10
2018-04-08T18:39:59.479Z,16.00
2018-04-08T18:42:32.126Z,16.00
2018-04-08T18:45:04.730Z,15.90
2018-04-08T18:47:37.373Z,15.90
2018-04-08T18:50:09.970Z,15.90
2018-04-08T18:52:42.618Z,15.90
2018-04-08T18:55:16.053Z,15.70
2018-04-08T18:57:48.716Z,15.70
2018-04-08T19:00:22.088Z,15.60
2018-04-08T19:02:54.719Z,15.60
2018-04-08T19:05:28.090Z,15.40
2018-04-08T19:08:00.745Z,15.40
2018-04-08T19:10:33.349Z,15.30
2018-04-08T19:13:05.978Z,15.30
2018-04-08T19:15:38.586Z,15.20
2018-04-08T19:18:11.994Z,15.10
2018-04-08T19:20:45.381Z,14.90
2018-04-08T19:23:18.030Z,14.90
2018-04-08T19:25:51.409Z,14.80
2018-04-08T19:28:24.805Z,14.70
2018-04-08T19:30:57.458Z,14.70
2018-04-08T19:33:30.106Z,14.70
2018-04-08T19:36:02.777Z,14.60
2018-04-08T19:38:36.172Z,14.40
2018-04-08T19:41:09.044Z,14.40
2018-04-08T19:43:41.860Z,14.50
2018-04-08T19:46:14.703Z,14.40
2018-04-08T19:48:47.452Z,14.40
2018-04-08T19:51:20.064Z,14.30
2018-04-08T19:53:52.714Z,14.20
2018-04-08T19:56:25.330Z,14.20
2018-04-08T19:58:57.959Z,14.10
2018-04-08T20:01:31.332Z,13.80
2018-04-08T20:04:03.983Z,13.80
2018-04-08T20:06:36.590Z,13.80
2018-04-08T20:09:09.218Z,13.80
2018-04-08T20:11:41.842Z,13.70
2018-04-08T20:14:14.513Z,13.60
2018-04-08T20:16:47.912Z,13.60
2018-04-08T20:19:20.545Z,13.60
2018-04-08T20:21:53.155Z,13.50
2018-04-08T20:24:25.782Z,12.70
2018-04-08T20:26:58.390Z,13.00
2018-04-08T20:29:31.816Z,13.10
2018-04-08T20:32:05.178Z,13.20
2018-04-08T20:34:37.808Z,13.10
2018-04-08T20:37:11.201Z,13.10
2018-04-08T20:39:44.637Z,13.20
2018-04-08T20:42:17.254Z,13.20
2018-04-08T20:44:49.890Z,13.20
2018-04-08T20:47:22.506Z,12.20
2018-04-08T20:49:55.929Z,12.80
2018-04-08T20:52:28.531Z,12.80
2018-04-08T20:55:01.163Z,12.70
2018-04-08T20:57:33.778Z,12.50
2018-04-08T21:00:06.404Z,12.20
2018-04-08T21:02:39.009Z,12.50
2018-04-08T21:05:11.657Z,12.60
2018-04-08T21:07:45.054Z,12.40
2018-04-08T21:10:17.693Z,12.40
2018-04-08T21:12:50.340Z,12.60
2018-04-08T21:15:22.951Z,12.50
2018-04-08T21:17:56.323Z,12.50
2018-04-08T21:20:28.957Z,12.40
2018-04-08T21:23:01.578Z,12.30
2018-04-08T21:25:34.220Z,12.10
2018-04-08T21:28:07.599Z,12.20
2018-04-08T21:30:40.226Z,12.10
2018-04-08T21:33:13.616Z,12.40
2018-04-08T21:35:46.272Z,12.30
2018-04-08T21:38:18.883Z,11.90
2018-04-08T21:40:51.514Z,11.70
2018-04-08T21:43:24.889Z,12.20
2018-04-08T21:45:57.521Z,12.10
2018-04-08T21:48:30.910Z,11.70
2018-04-08T21:51:03.539Z,11.70
2018-04-08T21:53:36.150Z,11.90
2018-04-08T21:56:08.798Z,11.40
2018-04-08T21:58:42.174Z,9.80
2018-04-08T22:01:14.831Z,9.80
2018-04-08T22:03:47.441Z,10.40
2018-04-08T22:06:20.095Z,11.20
2018-04-08T22:08:53.465Z,9.40
2018-04-08T22:11:26.085Z,9.40
2018-04-08T22:13:59.463Z,10.70
2018-04-08T22:16:32.097Z,10.70
2018-04-08T22:19:05.469Z,11.00
2018-04-08T22:21:38.105Z,10.90
2018-04-08T22:24:10.721Z,10.70
2018-04-08T22:26:43.379Z,10.80
2018-04-08T22:29:16.761Z,10.50
2018-04-08T22:31:49.410Z,10.50
2018-04-08T22:34:22.020Z,10.70
2018-04-08T22:36:54.670Z,10.90
2018-04-08T22:39:27.289Z,11.10
2018-04-08T22:41:59.952Z,9.70
2018-04-08T22:44:32.569Z,9.90
2018-04-08T22:47:05.196Z,9.80
2018-04-08T22:49:37.798Z,9.70
2018-04-08T22:52:10.419Z,9.10
2018-04-08T22:54:43.030Z,8.60
2018-04-08T22:57:15.668Z,8.50
2018-04-08T22:59:48.285Z,8.50
2018-04-08T23:02:21.677Z,9.50
2018-04-08T23:04:54.279Z,9.40
2018-04-08T23:07:27.666Z,9.90
2018-04-08T23:10:00.279Z,9.90
2018-04-08T23:12:33.777Z,10.10
2018-04-08T23:15:06.398Z,10.00
2018-04-08T23:17:39.028Z,10.40
2018-04-08T23:20:11.644Z,10.40
2018-04-08T23:22:44.289Z,10.40
2018-04-08T23:25:16.905Z,10.30
2018-04-08T23:27:49.533Z,10.40
2018-04-08T23:30:22.145Z,10.50
2018-04-08T23:32:55.541Z,10.10
2018-04-08T23:35:28.902Z,9.60
2018-04-08T23:38:01.532Z,9.50
2018-04-08T23:40:34.130Z,9.70
2018-04-08T23:43:07.545Z,9.60
2018-04-08T23:45:40.923Z,8.90
2018-04-08T23:48:13.567Z,8.90
2018-04-08T23:50:46.186Z,8.90
2018-04-08T23:53:18.834Z,8.70
2018-04-08T23:55:52.194Z,9.30
2018-04-08T23:58:25.582Z,9.70
